sensor_id;sensor_type;location;lat;lon;timestamp;P1;durP1;ratioP1;P2;durP2;ratioP2
2031;SDS011;27625;50.422;7.944;2022-12-07T00:02:37;24.53;;;13.13;;
2031;SDS011;27625;50.422;7.944;2022-12-07T00:05:04;24.90;;;14.00;;
2031;SDS011;27625;50.422;7.944;2022-12-07T00:07:32;25.90;;;16.10;;
2031;SDS011;27625;50.422;7.944;2022-12-07T00:10:07;22.60;;;14.23;;
2031;SDS011;27625;50.422;7.944;2022-12-07T00:12:35;22.30;;;14.43;;
2031;SDS011;27625;50.422;7.944;2022-12-07T00:15:01;21.97;;;14.20;;
2031;SDS011;27625;50.422;7.944;2022-12-07T00:17:28;24.60;;;15.50;;
2031;SDS011;27625;50.422;7.944;2022-12-07T00:19:57;23.17;;;14.23;;
2031;SDS011;27625;50.422;7.944;2022-12-07T00:22:23;20.77;;;13.00;;
2031;SDS011;27625;50.422;7.944;2022-12-07T00:24:50;20.30;;;13.70;;
2031;SDS011;27625;50.422;7.944;2022-12-07T00:27:16;24.37;;;14.10;;
2031;SDS011;27625;50.422;7.944;2022-12-07T00:29:49;21.43;;;13.53;;
2031;SDS011;27625;50.422;7.944;2022-12-07T00:32:17;21.97;;;13.80;;
2031;SDS011;27625;50.422;7.944;2022-12-07T00:34:46;21.63;;;15.20;;
2031;SDS011;27625;50.422;7.944;2022-12-07T00:37:16;23.00;;;15.23;;
2031;SDS011;27625;50.422;7.944;2022-12-07T00:39:47;23.70;;;13.60;;
2031;SDS011;27625;50.422;7.944;2022-12-07T00:42:18;25.80;;;13.93;;
2031;SDS011;27625;50.422;7.944;2022-12-07T00:44:46;21.90;;;13.07;;
2031;SDS011;27625;50.422;7.944;2022-12-07T00:47:12;20.60;;;11.67;;
2031;SDS011;27625;50.422;7.944;2022-12-07T00:49:41;18.47;;;12.47;;
2031;SDS011;27625;50.422;7.944;2022-12-07T00:52:14;20.80;;;13.10;;
2031;SDS011;27625;50.422;7.944;2022-12-07T00:54:43;22.30;;;14.40;;
2031;SDS011;27625;50.422;7.944;2022-12-07T00:57:10;32.57;;;17.27;;
2031;SDS011;27625;50.422;7.944;2022-12-07T00:59:38;27.10;;;15.37;;
2031;SDS011;27625;50.422;7.944;2022-12-07T01:02:04;25.13;;;14.77;;
2031;SDS011;27625;50.422;7.944;2022-12-07T01:04:33;26.27;;;14.63;;
2031;SDS011;27625;50.422;7.944;2022-12-07T01:06:59;26.73;;;15.20;;
2031;SDS011;27625;50.422;7.944;2022-12-07T01:09:27;26.53;;;14.60;;
2031;SDS011;27625;50.422;7.944;2022-12-07T01:11:55;21.10;;;12.40;;
2031;SDS011;27625;50.422;7.944;2022-12-07T01:14:24;23.57;;;13.63;;
2031;SDS011;27625;50.422;7.944;2022-12-07T01:16:51;20.13;;;13.10;;
2031;SDS011;27625;50.422;7.944;2022-12-07T01:19:24;20.50;;;12.90;;
2031;SDS011;27625;50.422;7.944;2022-12-07T01:21:50;18.53;;;12.30;;
2031;SDS011;27625;50.422;7.944;2022-12-07T01:24:19;20.93;;;12.60;;
2031;SDS011;27625;50.422;7.944;2022-12-07T01:26:48;26.40;;;13.80;;
2031;SDS011;27625;50.422;7.944;2022-12-07T01:29:16;18.63;;;12.03;;
2031;SDS011;27625;50.422;7.944;2022-12-07T01:31:50;15.43;;;10.80;;
2031;SDS011;27625;50.422;7.944;2022-12-07T01:34:17;19.43;;;11.13;;
2031;SDS011;27625;50.422;7.944;2022-12-07T01:36:50;20.43;;;12.13;;
2031;SDS011;27625;50.422;7.944;2022-12-07T01:39:23;19.10;;;12.37;;
2031;SDS011;27625;50.422;7.944;2022-12-07T01:41:50;17.80;;;12.53;;
2031;SDS011;27625;50.422;7.944;2022-12-07T01:44:26;15.83;;;10.60;;
2031;SDS011;27625;50.422;7.944;2022-12-07T01:46:56;17.27;;;11.33;;
2031;SDS011;27625;50.422;7.944;2022-12-07T01:49:30;22.20;;;11.70;;
2031;SDS011;27625;50.422;7.944;2022-12-07T01:52:00;18.27;;;11.87;;
2031;SDS011;27625;50.422;7.944;2022-12-07T01:54:30;20.40;;;12.07;;
2031;SDS011;27625;50.422;7.944;2022-12-07T01:56:57;21.07;;;11.57;;
2031;SDS011;27625;50.422;7.944;2022-12-07T01:59:25;18.53;;;11.90;;
2031;SDS011;27625;50.422;7.944;2022-12-07T02:01:52;17.90;;;11.80;;
2031;SDS011;27625;50.422;7.944;2022-12-07T02:04:21;20.00;;;12.10;;
2031;SDS011;27625;50.422;7.944;2022-12-07T02:06:48;19.60;;;12.90;;
2031;SDS011;27625;50.422;7.944;2022-12-07T02:09:16;19.57;;;12.67;;
2031;SDS011;27625;50.422;7.944;2022-12-07T02:11:47;20.10;;;11.43;;
2031;SDS011;27625;50.422;7.944;2022-12-07T02:14:16;18.67;;;11.70;;
2031;SDS011;27625;50.422;7.944;2022-12-07T02:16:47;20.03;;;11.80;;
2031;SDS011;27625;50.422;7.944;2022-12-07T02:19:25;17.53;;;11.90;;
2031;SDS011;27625;50.422;7.944;2022-12-07T02:22:14;21.10;;;12.17;;
2031;SDS011;27625;50.422;7.944;2022-12-07T02:24:52;17.70;;;12.10;;
2031;SDS011;27625;50.422;7.944;2022-12-07T02:30:08;18.67;;;12.57;;
2031;SDS011;27625;50.422;7.944;2022-12-07T02:32:40;22.53;;;12.37;;
2031;SDS011;27625;50.422;7.944;2022-12-07T02:35:11;16.97;;;11.60;;
2031;SDS011;27625;50.422;7.944;2022-12-07T02:37:49;20.47;;;12.80;;
2031;SDS011;27625;50.422;7.944;2022-12-07T02:42:53;20.90;;;12.47;;
2031;SDS011;27625;50.422;7.944;2022-12-07T02:45:25;24.27;;;13.13;;
2031;SDS011;27625;50.422;7.944;2022-12-07T02:47:59;22.50;;;14.30;;
2031;SDS011;27625;50.422;7.944;2022-12-07T02:50:29;19.80;;;12.60;;
2031;SDS011;27625;50.422;7.944;2022-12-07T02:52:56;21.90;;;13.57;;
2031;SDS011;27625;50.422;7.944;2022-12-07T02:55:26;25.63;;;14.00;;
2031;SDS011;27625;50.422;7.944;2022-12-07T02:58:17;23.10;;;13.60;;
2031;SDS011;27625;50.422;7.944;2022-12-07T03:00:51;27.17;;;14.60;;
2031;SDS011;27625;50.422;7.944;2022-12-07T03:03:22;23.00;;;13.80;;
2031;SDS011;27625;50.422;7.944;2022-12-07T03:05:54;24.13;;;14.80;;
2031;SDS011;27625;50.422;7.944;2022-12-07T03:08:32;22.83;;;13.80;;
2031;SDS011;27625;50.422;7.944;2022-12-07T03:11:12;22.73;;;14.33;;
2031;SDS011;27625;50.422;7.944;2022-12-07T03:13:48;28.20;;;16.70;;
2031;SDS011;27625;50.422;7.944;2022-12-07T03:16:19;26.47;;;15.07;;
2031;SDS011;27625;50.422;7.944;2022-12-07T03:18:48;22.70;;;14.87;;
2031;SDS011;27625;50.422;7.944;2022-12-07T03:21:20;25.60;;;15.97;;
2031;SDS011;27625;50.422;7.944;2022-12-07T03:23:50;25.57;;;15.20;;
2031;SDS011;27625;50.422;7.944;2022-12-07T03:26:19;26.63;;;15.43;;
2031;SDS011;27625;50.422;7.944;2022-12-07T03:28:52;27.93;;;16.13;;
2031;SDS011;27625;50.422;7.944;2022-12-07T03:31:21;25.20;;;15.77;;
2031;SDS011;27625;50.422;7.944;2022-12-07T03:33:49;27.17;;;16.20;;
2031;SDS011;27625;50.422;7.944;2022-12-07T03:36:23;27.33;;;16.27;;
2031;SDS011;27625;50.422;7.944;2022-12-07T03:38:53;27.30;;;16.67;;
2031;SDS011;27625;50.422;7.944;2022-12-07T03:41:23;31.17;;;17.30;;
2031;SDS011;27625;50.422;7.944;2022-12-07T03:46:27;28.17;;;17.53;;
2031;SDS011;27625;50.422;7.944;2022-12-07T03:49:02;31.97;;;18.20;;
2031;SDS011;27625;50.422;7.944;2022-12-07T03:51:36;29.53;;;17.33;;
2031;SDS011;27625;50.422;7.944;2022-12-07T03:54:07;24.13;;;16.10;;
2031;SDS011;27625;50.422;7.944;2022-12-07T03:56:38;23.40;;;14.70;;
2031;SDS011;27625;50.422;7.944;2022-12-07T03:59:08;26.70;;;16.40;;
2031;SDS011;27625;50.422;7.944;2022-12-07T04:01:36;27.73;;;15.97;;
2031;SDS011;27625;50.422;7.944;2022-12-07T04:04:03;27.70;;;16.20;;
2031;SDS011;27625;50.422;7.944;2022-12-07T04:06:33;31.27;;;16.93;;
2031;SDS011;27625;50.422;7.944;2022-12-07T04:08:59;28.83;;;16.50;;
2031;SDS011;27625;50.422;7.944;2022-12-07T04:11:26;26.07;;;15.80;;
2031;SDS011;27625;50.422;7.944;2022-12-07T04:13:54;29.43;;;17.07;;
2031;SDS011;27625;50.422;7.944;2022-12-07T04:16:41;27.00;;;17.03;;
2031;SDS011;27625;50.422;7.944;2022-12-07T04:19:08;28.80;;;17.60;;
2031;SDS011;27625;50.422;7.944;2022-12-07T04:21:36;28.97;;;16.23;;
2031;SDS011;27625;50.422;7.944;2022-12-07T04:24:03;30.43;;;17.30;;
2031;SDS011;27625;50.422;7.944;2022-12-07T04:26:30;37.13;;;23.30;;
2031;SDS011;27625;50.422;7.944;2022-12-07T04:28:57;33.63;;;21.40;;
2031;SDS011;27625;50.422;7.944;2022-12-07T04:31:23;37.10;;;20.30;;
2031;SDS011;27625;50.422;7.944;2022-12-07T04:33:53;38.43;;;20.90;;
2031;SDS011;27625;50.422;7.944;2022-12-07T04:36:20;29.63;;;18.90;;
2031;SDS011;27625;50.422;7.944;2022-12-07T04:38:47;28.23;;;17.37;;
2031;SDS011;27625;50.422;7.944;2022-12-07T04:41:24;33.40;;;18.90;;
2031;SDS011;27625;50.422;7.944;2022-12-07T04:43:53;36.70;;;18.33;;
2031;SDS011;27625;50.422;7.944;2022-12-07T04:46:29;29.17;;;17.43;;
2031;SDS011;27625;50.422;7.944;2022-12-07T04:48:59;28.17;;;17.30;;
2031;SDS011;27625;50.422;7.944;2022-12-07T04:51:27;29.00;;;17.23;;
2031;SDS011;27625;50.422;7.944;2022-12-07T04:53:56;27.60;;;17.37;;
2031;SDS011;27625;50.422;7.944;2022-12-07T04:56:24;26.67;;;16.03;;
2031;SDS011;27625;50.422;7.944;2022-12-07T04:58:51;27.30;;;16.47;;
2031;SDS011;27625;50.422;7.944;2022-12-07T05:01:19;22.57;;;14.73;;
2031;SDS011;27625;50.422;7.944;2022-12-07T05:03:53;26.27;;;16.50;;
2031;SDS011;27625;50.422;7.944;2022-12-07T05:06:21;21.43;;;14.67;;
2031;SDS011;27625;50.422;7.944;2022-12-07T05:08:49;23.80;;;14.10;;
2031;SDS011;27625;50.422;7.944;2022-12-07T05:11:16;25.53;;;15.80;;
2031;SDS011;27625;50.422;7.944;2022-12-07T05:13:57;27.27;;;16.43;;
2031;SDS011;27625;50.422;7.944;2022-12-07T05:16:23;35.60;;;17.57;;
2031;SDS011;27625;50.422;7.944;2022-12-07T05:18:50;28.07;;;16.87;;
2031;SDS011;27625;50.422;7.944;2022-12-07T05:21:17;30.70;;;16.40;;
2031;SDS011;27625;50.422;7.944;2022-12-07T05:23:45;26.37;;;17.40;;
2031;SDS011;27625;50.422;7.944;2022-12-07T05:26:11;31.87;;;20.07;;
2031;SDS011;27625;50.422;7.944;2022-12-07T05:28:39;26.70;;;16.77;;
2031;SDS011;27625;50.422;7.944;2022-12-07T05:31:06;31.63;;;17.03;;
2031;SDS011;27625;50.422;7.944;2022-12-07T05:33:32;32.23;;;16.30;;
2031;SDS011;27625;50.422;7.944;2022-12-07T05:35:59;24.23;;;15.70;;
2031;SDS011;27625;50.422;7.944;2022-12-07T05:38:32;28.37;;;17.30;;
2031;SDS011;27625;50.422;7.944;2022-12-07T05:41:01;25.33;;;16.40;;
2031;SDS011;27625;50.422;7.944;2022-12-07T05:43:29;25.63;;;16.00;;
2031;SDS011;27625;50.422;7.944;2022-12-07T05:45:57;26.27;;;15.47;;
2031;SDS011;27625;50.422;7.944;2022-12-07T05:48:24;28.77;;;16.97;;
2031;SDS011;27625;50.422;7.944;2022-12-07T05:50:52;26.77;;;18.57;;
2031;SDS011;27625;50.422;7.944;2022-12-07T05:53:27;34.27;;;20.73;;
2031;SDS011;27625;50.422;7.944;2022-12-07T05:55:54;26.20;;;18.53;;
2031;SDS011;27625;50.422;7.944;2022-12-07T05:58:22;30.97;;;18.60;;
2031;SDS011;27625;50.422;7.944;2022-12-07T06:01:03;33.40;;;19.03;;
2031;SDS011;27625;50.422;7.944;2022-12-07T06:03:29;30.13;;;18.50;;
2031;SDS011;27625;50.422;7.944;2022-12-07T06:05:56;32.43;;;17.73;;
2031;SDS011;27625;50.422;7.944;2022-12-07T06:08:22;26.37;;;16.67;;
2031;SDS011;27625;50.422;7.944;2022-12-07T06:10:49;28.07;;;17.10;;
2031;SDS011;27625;50.422;7.944;2022-12-07T06:13:38;21.60;;;14.90;;
2031;SDS011;27625;50.422;7.944;2022-12-07T06:16:04;25.30;;;15.73;;
2031;SDS011;27625;50.422;7.944;2022-12-07T06:18:31;25.80;;;15.93;;
2031;SDS011;27625;50.422;7.944;2022-12-07T06:20:57;27.03;;;18.60;;
2031;SDS011;27625;50.422;7.944;2022-12-07T06:23:24;25.07;;;15.77;;
2031;SDS011;27625;50.422;7.944;2022-12-07T06:25:51;21.83;;;14.03;;
2031;SDS011;27625;50.422;7.944;2022-12-07T06:28:18;25.37;;;15.60;;
2031;SDS011;27625;50.422;7.944;2022-12-07T06:30:48;22.87;;;15.17;;
2031;SDS011;27625;50.422;7.944;2022-12-07T06:33:25;23.83;;;14.53;;
2031;SDS011;27625;50.422;7.944;2022-12-07T06:35:53;23.90;;;14.97;;
2031;SDS011;27625;50.422;7.944;2022-12-07T06:38:21;24.63;;;15.97;;
2031;SDS011;27625;50.422;7.944;2022-12-07T06:40:48;25.20;;;16.63;;
2031;SDS011;27625;50.422;7.944;2022-12-07T06:43:15;22.80;;;14.70;;
2031;SDS011;27625;50.422;7.944;2022-12-07T06:45:42;27.23;;;16.30;;
2031;SDS011;27625;50.422;7.944;2022-12-07T06:48:11;31.00;;;18.17;;
2031;SDS011;27625;50.422;7.944;2022-12-07T06:50:39;28.00;;;18.60;;
2031;SDS011;27625;50.422;7.944;2022-12-07T06:53:07;27.00;;;18.80;;
2031;SDS011;27625;50.422;7.944;2022-12-07T06:55:34;27.33;;;17.23;;
2031;SDS011;27625;50.422;7.944;2022-12-07T06:58:01;22.87;;;15.37;;
2031;SDS011;27625;50.422;7.944;2022-12-07T07:00:28;23.80;;;15.70;;
2031;SDS011;27625;50.422;7.944;2022-12-07T07:02:57;27.27;;;18.50;;
2031;SDS011;27625;50.422;7.944;2022-12-07T07:05:25;27.70;;;16.93;;
2031;SDS011;27625;50.422;7.944;2022-12-07T07:07:53;25.13;;;16.07;;
2031;SDS011;27625;50.422;7.944;2022-12-07T07:10:20;25.47;;;16.40;;
2031;SDS011;27625;50.422;7.944;2022-12-07T07:12:48;25.97;;;15.70;;
2031;SDS011;27625;50.422;7.944;2022-12-07T07:15:14;27.40;;;17.17;;
2031;SDS011;27625;50.422;7.944;2022-12-07T07:17:42;26.30;;;16.57;;
2031;SDS011;27625;50.422;7.944;2022-12-07T07:20:09;23.97;;;15.30;;
2031;SDS011;27625;50.422;7.944;2022-12-07T07:22:38;27.60;;;17.27;;
2031;SDS011;27625;50.422;7.944;2022-12-07T07:25:04;21.83;;;15.43;;
2031;SDS011;27625;50.422;7.944;2022-12-07T07:27:31;21.50;;;12.90;;
2031;SDS011;27625;50.422;7.944;2022-12-07T07:30:00;30.00;;;17.00;;
2031;SDS011;27625;50.422;7.944;2022-12-07T07:32:27;31.47;;;18.20;;
2031;SDS011;27625;50.422;7.944;2022-12-07T07:34:56;29.83;;;20.40;;
2031;SDS011;27625;50.422;7.944;2022-12-07T07:37:23;26.93;;;17.00;;
2031;SDS011;27625;50.422;7.944;2022-12-07T07:39:51;18.47;;;12.77;;
2031;SDS011;27625;50.422;7.944;2022-12-07T07:42:20;19.50;;;12.13;;
2031;SDS011;27625;50.422;7.944;2022-12-07T07:44:46;18.97;;;12.53;;
2031;SDS011;27625;50.422;7.944;2022-12-07T07:47:13;17.23;;;12.00;;
2031;SDS011;27625;50.422;7.944;2022-12-07T07:49:40;15.20;;;11.07;;
2031;SDS011;27625;50.422;7.944;2022-12-07T07:52:12;14.30;;;10.47;;
2031;SDS011;27625;50.422;7.944;2022-12-07T07:54:39;14.63;;;10.53;;
2031;SDS011;27625;50.422;7.944;2022-12-07T07:57:15;14.33;;;10.40;;
2031;SDS011;27625;50.422;7.944;2022-12-07T07:59:49;14.27;;;10.30;;
2031;SDS011;27625;50.422;7.944;2022-12-07T08:02:23;17.10;;;12.10;;
2031;SDS011;27625;50.422;7.944;2022-12-07T08:04:49;18.30;;;12.00;;
2031;SDS011;27625;50.422;7.944;2022-12-07T08:07:17;19.93;;;13.37;;
2031;SDS011;27625;50.422;7.944;2022-12-07T08:09:44;15.87;;;10.93;;
2031;SDS011;27625;50.422;7.944;2022-12-07T08:12:11;19.43;;;12.20;;
2031;SDS011;27625;50.422;7.944;2022-12-07T08:14:39;17.43;;;11.63;;
2031;SDS011;27625;50.422;7.944;2022-12-07T08:17:06;16.03;;;11.50;;
2031;SDS011;27625;50.422;7.944;2022-12-07T08:19:33;17.97;;;12.20;;
2031;SDS011;27625;50.422;7.944;2022-12-07T08:21:59;18.70;;;12.40;;
2031;SDS011;27625;50.422;7.944;2022-12-07T08:24:28;17.20;;;11.53;;
2031;SDS011;27625;50.422;7.944;2022-12-07T08:26:55;19.87;;;12.60;;
2031;SDS011;27625;50.422;7.944;2022-12-07T08:29:21;14.80;;;11.13;;
2031;SDS011;27625;50.422;7.944;2022-12-07T08:31:50;17.97;;;14.07;;
2031;SDS011;27625;50.422;7.944;2022-12-07T08:34:17;22.10;;;13.53;;
2031;SDS011;27625;50.422;7.944;2022-12-07T08:36:43;24.77;;;14.30;;
2031;SDS011;27625;50.422;7.944;2022-12-07T08:39:10;24.00;;;16.93;;
2031;SDS011;27625;50.422;7.944;2022-12-07T08:41:38;25.07;;;14.80;;
2031;SDS011;27625;50.422;7.944;2022-12-07T08:44:04;18.33;;;13.13;;
2031;SDS011;27625;50.422;7.944;2022-12-07T08:46:32;21.50;;;15.50;;
2031;SDS011;27625;50.422;7.944;2022-12-07T08:49:04;25.17;;;16.40;;
2031;SDS011;27625;50.422;7.944;2022-12-07T08:51:34;23.67;;;14.50;;
2031;SDS011;27625;50.422;7.944;2022-12-07T08:54:01;17.20;;;10.83;;
2031;SDS011;27625;50.422;7.944;2022-12-07T08:56:32;16.47;;;10.97;;
2031;SDS011;27625;50.422;7.944;2022-12-07T08:59:00;15.00;;;11.07;;
2031;SDS011;27625;50.422;7.944;2022-12-07T09:01:27;18.43;;;11.13;;
2031;SDS011;27625;50.422;7.944;2022-12-07T09:03:54;14.30;;;10.43;;
2031;SDS011;27625;50.422;7.944;2022-12-07T09:06:24;17.30;;;10.67;;
2031;SDS011;27625;50.422;7.944;2022-12-07T09:08:52;20.40;;;10.50;;
2031;SDS011;27625;50.422;7.944;2022-12-07T09:11:20;19.87;;;11.03;;
2031;SDS011;27625;50.422;7.944;2022-12-07T09:13:48;16.80;;;11.80;;
2031;SDS011;27625;50.422;7.944;2022-12-07T09:16:16;19.37;;;9.93;;
2031;SDS011;27625;50.422;7.944;2022-12-07T09:18:43;17.40;;;9.63;;
2031;SDS011;27625;50.422;7.944;2022-12-07T09:21:10;16.90;;;9.97;;
2031;SDS011;27625;50.422;7.944;2022-12-07T09:23:39;17.80;;;11.00;;
2031;SDS011;27625;50.422;7.944;2022-12-07T09:26:07;18.87;;;12.10;;
2031;SDS011;27625;50.422;7.944;2022-12-07T09:28:34;17.77;;;11.43;;
2031;SDS011;27625;50.422;7.944;2022-12-07T09:31:04;20.30;;;14.30;;
2031;SDS011;27625;50.422;7.944;2022-12-07T09:33:33;20.20;;;14.50;;
2031;SDS011;27625;50.422;7.944;2022-12-07T09:36:00;18.40;;;13.20;;
2031;SDS011;27625;50.422;7.944;2022-12-07T09:38:27;23.40;;;14.00;;
2031;SDS011;27625;50.422;7.944;2022-12-07T09:40:57;18.80;;;12.90;;
2031;SDS011;27625;50.422;7.944;2022-12-07T09:43:24;14.80;;;9.87;;
2031;SDS011;27625;50.422;7.944;2022-12-07T09:45:51;17.77;;;10.97;;
2031;SDS011;27625;50.422;7.944;2022-12-07T09:48:20;14.67;;;10.07;;
2031;SDS011;27625;50.422;7.944;2022-12-07T09:50:50;14.40;;;10.50;;
2031;SDS011;27625;50.422;7.944;2022-12-07T09:53:19;19.00;;;11.73;;
2031;SDS011;27625;50.422;7.944;2022-12-07T09:55:50;17.10;;;13.03;;
2031;SDS011;27625;50.422;7.944;2022-12-07T09:58:21;18.73;;;13.60;;
2031;SDS011;27625;50.422;7.944;2022-12-07T10:00:50;16.40;;;11.90;;
2031;SDS011;27625;50.422;7.944;2022-12-07T10:03:17;17.30;;;13.20;;
2031;SDS011;27625;50.422;7.944;2022-12-07T10:05:44;16.50;;;11.10;;
2031;SDS011;27625;50.422;7.944;2022-12-07T10:08:14;18.67;;;12.43;;
2031;SDS011;27625;50.422;7.944;2022-12-07T10:10:42;17.73;;;14.33;;
2031;SDS011;27625;50.422;7.944;2022-12-07T10:13:18;24.60;;;14.80;;
2031;SDS011;27625;50.422;7.944;2022-12-07T10:15:48;20.30;;;14.20;;
2031;SDS011;27625;50.422;7.944;2022-12-07T10:18:25;20.90;;;14.23;;
2031;SDS011;27625;50.422;7.944;2022-12-07T10:21:10;20.50;;;14.10;;
2031;SDS011;27625;50.422;7.944;2022-12-07T10:23:39;19.47;;;13.53;;
2031;SDS011;27625;50.422;7.944;2022-12-07T10:26:19;20.17;;;14.03;;
2031;SDS011;27625;50.422;7.944;2022-12-07T10:28:53;24.63;;;13.97;;
2031;SDS011;27625;50.422;7.944;2022-12-07T10:31:24;23.53;;;15.87;;
2031;SDS011;27625;50.422;7.944;2022-12-07T10:33:52;35.37;;;22.70;;
2031;SDS011;27625;50.422;7.944;2022-12-07T10:36:21;21.07;;;14.60;;
2031;SDS011;27625;50.422;7.944;2022-12-07T10:38:59;15.80;;;11.13;;
2031;SDS011;27625;50.422;7.944;2022-12-07T10:41:28;16.63;;;11.80;;
2031;SDS011;27625;50.422;7.944;2022-12-07T10:43:57;16.90;;;11.40;;
2031;SDS011;27625;50.422;7.944;2022-12-07T10:52:40;20.20;;;11.30;;
2031;SDS011;27625;50.422;7.944;2022-12-07T10:55:16;12.80;;;9.17;;
2031;SDS011;27625;50.422;7.944;2022-12-07T10:57:55;15.00;;;9.40;;
2031;SDS011;27625;50.422;7.944;2022-12-07T11:00:29;12.43;;;8.53;;
2031;SDS011;27625;50.422;7.944;2022-12-07T11:03:15;12.63;;;8.97;;
2031;SDS011;27625;50.422;7.944;2022-12-07T11:05:51;12.80;;;9.00;;
2031;SDS011;27625;50.422;7.944;2022-12-07T11:08:21;13.30;;;8.40;;
2031;SDS011;27625;50.422;7.944;2022-12-07T11:10:53;12.67;;;8.03;;
2031;SDS011;27625;50.422;7.944;2022-12-07T11:13:23;10.27;;;8.17;;
2031;SDS011;27625;50.422;7.944;2022-12-07T11:16:07;14.93;;;8.60;;
2031;SDS011;27625;50.422;7.944;2022-12-07T11:18:52;13.70;;;9.23;;
2031;SDS011;27625;50.422;7.944;2022-12-07T11:21:42;9.70;;;7.57;;
2031;SDS011;27625;50.422;7.944;2022-12-07T11:24:13;14.43;;;8.60;;
2031;SDS011;27625;50.422;7.944;2022-12-07T11:26:51;10.73;;;7.57;;
2031;SDS011;27625;50.422;7.944;2022-12-07T11:29:35;13.40;;;8.73;;
2031;SDS011;27625;50.422;7.944;2022-12-07T11:32:13;13.00;;;8.70;;
2031;SDS011;27625;50.422;7.944;2022-12-07T11:34:45;12.30;;;8.60;;
2031;SDS011;27625;50.422;7.944;2022-12-07T11:37:18;13.60;;;8.10;;
2031;SDS011;27625;50.422;7.944;2022-12-07T11:39:47;10.60;;;7.87;;
2031;SDS011;27625;50.422;7.944;2022-12-07T11:42:20;13.50;;;9.70;;
2031;SDS011;27625;50.422;7.944;2022-12-07T11:44:49;10.40;;;8.07;;
2031;SDS011;27625;50.422;7.944;2022-12-07T11:47:23;12.33;;;7.80;;
2031;SDS011;27625;50.422;7.944;2022-12-07T11:49:54;14.57;;;10.37;;
2031;SDS011;27625;50.422;7.944;2022-12-07T11:52:25;12.50;;;8.87;;
2031;SDS011;27625;50.422;7.944;2022-12-07T11:55:15;13.40;;;8.43;;
2031;SDS011;27625;50.422;7.944;2022-12-07T11:57:48;9.60;;;7.07;;
2031;SDS011;27625;50.422;7.944;2022-12-07T12:00:18;9.40;;;6.80;;
2031;SDS011;27625;50.422;7.944;2022-12-07T12:02:48;8.87;;;5.30;;
2031;SDS011;27625;50.422;7.944;2022-12-07T12:05:17;8.60;;;5.67;;
2031;SDS011;27625;50.422;7.944;2022-12-07T12:07:49;11.23;;;6.00;;
2031;SDS011;27625;50.422;7.944;2022-12-07T12:10:21;10.87;;;5.60;;
2031;SDS011;27625;50.422;7.944;2022-12-07T12:15:59;11.43;;;7.60;;
2031;SDS011;27625;50.422;7.944;2022-12-07T12:18:41;11.77;;;8.60;;
2031;SDS011;27625;50.422;7.944;2022-12-07T12:21:16;9.03;;;6.70;;
2031;SDS011;27625;50.422;7.944;2022-12-07T12:23:45;10.23;;;6.33;;
2031;SDS011;27625;50.422;7.944;2022-12-07T12:26:15;8.97;;;6.27;;
2031;SDS011;27625;50.422;7.944;2022-12-07T12:28:50;7.23;;;5.10;;
2031;SDS011;27625;50.422;7.944;2022-12-07T12:31:31;9.60;;;6.10;;
2031;SDS011;27625;50.422;7.944;2022-12-07T12:34:04;8.40;;;6.50;;
2031;SDS011;27625;50.422;7.944;2022-12-07T12:36:56;12.43;;;7.03;;
2031;SDS011;27625;50.422;7.944;2022-12-07T12:39:24;12.97;;;7.40;;
2031;SDS011;27625;50.422;7.944;2022-12-07T12:41:59;9.20;;;6.50;;
2031;SDS011;27625;50.422;7.944;2022-12-07T12:44:40;13.13;;;6.33;;
2031;SDS011;27625;50.422;7.944;2022-12-07T12:50:15;8.00;;;6.47;;
2031;SDS011;27625;50.422;7.944;2022-12-07T12:56:06;7.23;;;5.93;;
2031;SDS011;27625;50.422;7.944;2022-12-07T12:58:42;10.60;;;6.30;;
2031;SDS011;27625;50.422;7.944;2022-12-07T13:10:37;27.50;;;15.53;;
2031;SDS011;27625;50.422;7.944;2022-12-07T13:25:12;12.07;;;7.87;;
2031;SDS011;27625;50.422;7.944;2022-12-07T13:27:57;11.33;;;7.03;;
2031;SDS011;27625;50.422;7.944;2022-12-07T13:30:27;10.43;;;6.33;;
2031;SDS011;27625;50.422;7.944;2022-12-07T13:32:57;12.23;;;6.03;;
2031;SDS011;27625;50.422;7.944;2022-12-07T13:35:31;12.80;;;6.80;;
2031;SDS011;27625;50.422;7.944;2022-12-07T13:38:02;9.83;;;6.70;;
2031;SDS011;27625;50.422;7.944;2022-12-07T13:40:32;21.80;;;10.13;;
2031;SDS011;27625;50.422;7.944;2022-12-07T13:43:00;23.73;;;10.87;;
2031;SDS011;27625;50.422;7.944;2022-12-07T13:45:30;16.90;;;10.40;;
2031;SDS011;27625;50.422;7.944;2022-12-07T13:48:20;16.33;;;10.73;;
2031;SDS011;27625;50.422;7.944;2022-12-07T13:50:55;15.20;;;10.80;;
2031;SDS011;27625;50.422;7.944;2022-12-07T13:53:22;21.00;;;9.27;;
2031;SDS011;27625;50.422;7.944;2022-12-07T13:55:51;17.50;;;11.50;;
2031;SDS011;27625;50.422;7.944;2022-12-07T13:58:18;12.20;;;7.90;;
2031;SDS011;27625;50.422;7.944;2022-12-07T14:00:45;20.73;;;13.00;;
2031;SDS011;27625;50.422;7.944;2022-12-07T14:03:29;13.20;;;7.33;;
2031;SDS011;27625;50.422;7.944;2022-12-07T14:06:18;14.80;;;5.70;;
2031;SDS011;27625;50.422;7.944;2022-12-07T14:09:08;12.23;;;6.33;;
2031;SDS011;27625;50.422;7.944;2022-12-07T14:11:48;14.60;;;8.63;;
2031;SDS011;27625;50.422;7.944;2022-12-07T14:14:22;21.40;;;7.77;;
2031;SDS011;27625;50.422;7.944;2022-12-07T14:17:01;10.50;;;6.30;;
2031;SDS011;27625;50.422;7.944;2022-12-07T14:19:40;13.93;;;9.00;;
2031;SDS011;27625;50.422;7.944;2022-12-07T14:22:18;14.80;;;8.43;;
2031;SDS011;27625;50.422;7.944;2022-12-07T14:24:47;22.10;;;9.10;;
2031;SDS011;27625;50.422;7.944;2022-12-07T14:27:19;13.50;;;8.47;;
2031;SDS011;27625;50.422;7.944;2022-12-07T14:29:46;11.53;;;6.53;;
2031;SDS011;27625;50.422;7.944;2022-12-07T14:32:18;13.97;;;5.50;;
2031;SDS011;27625;50.422;7.944;2022-12-07T14:34:57;9.20;;;5.87;;
2031;SDS011;27625;50.422;7.944;2022-12-07T14:37:25;8.43;;;5.13;;
2031;SDS011;27625;50.422;7.944;2022-12-07T14:39:52;9.63;;;5.80;;
2031;SDS011;27625;50.422;7.944;2022-12-07T14:42:20;5.77;;;3.43;;
2031;SDS011;27625;50.422;7.944;2022-12-07T14:44:57;7.70;;;4.70;;
2031;SDS011;27625;50.422;7.944;2022-12-07T14:47:26;6.40;;;4.17;;
2031;SDS011;27625;50.422;7.944;2022-12-07T14:49:56;5.77;;;4.97;;
2031;SDS011;27625;50.422;7.944;2022-12-07T14:52:27;7.37;;;5.40;;
2031;SDS011;27625;50.422;7.944;2022-12-07T14:54:55;8.60;;;6.00;;
2031;SDS011;27625;50.422;7.944;2022-12-07T14:57:25;9.07;;;6.23;;
2031;SDS011;27625;50.422;7.944;2022-12-07T14:59:52;10.20;;;6.43;;
2031;SDS011;27625;50.422;7.944;2022-12-07T15:02:20;10.93;;;7.60;;
2031;SDS011;27625;50.422;7.944;2022-12-07T15:04:47;10.27;;;7.50;;
2031;SDS011;27625;50.422;7.944;2022-12-07T15:07:20;10.90;;;7.10;;
2031;SDS011;27625;50.422;7.944;2022-12-07T15:09:49;11.60;;;8.60;;
2031;SDS011;27625;50.422;7.944;2022-12-07T15:12:16;15.10;;;7.40;;
2031;SDS011;27625;50.422;7.944;2022-12-07T15:14:44;10.73;;;5.83;;
2031;SDS011;27625;50.422;7.944;2022-12-07T15:17:11;8.80;;;5.90;;
2031;SDS011;27625;50.422;7.944;2022-12-07T15:19:38;18.60;;;7.10;;
2031;SDS011;27625;50.422;7.944;2022-12-07T15:22:04;12.33;;;9.33;;
2031;SDS011;27625;50.422;7.944;2022-12-07T15:24:31;13.03;;;11.00;;
2031;SDS011;27625;50.422;7.944;2022-12-07T15:26:59;17.77;;;12.90;;
2031;SDS011;27625;50.422;7.944;2022-12-07T15:29:32;22.20;;;14.60;;
2031;SDS011;27625;50.422;7.944;2022-12-07T15:32:03;18.07;;;12.67;;
2031;SDS011;27625;50.422;7.944;2022-12-07T15:34:31;14.93;;;10.23;;
2031;SDS011;27625;50.422;7.944;2022-12-07T15:36:59;12.97;;;8.93;;
2031;SDS011;27625;50.422;7.944;2022-12-07T15:39:27;12.83;;;8.60;;
2031;SDS011;27625;50.422;7.944;2022-12-07T15:41:53;13.97;;;10.30;;
2031;SDS011;27625;50.422;7.944;2022-12-07T15:44:23;16.50;;;11.23;;